createdAt,value
2023-04-08T00:00:10.765Z,3.90
2023-04-08T00:01:10.745Z,4.30
2023-04-08T00:02:10.819Z,4.60
2023-04-08T00:03:10.933Z,3.80
2023-04-08T00:04:10.996Z,4.00
2023-04-08T00:05:10.681Z,4.10
2023-04-08T00:06:10.708Z,4.30
2023-04-08T00:07:10.706Z,3.90
2023-04-08T00:08:10.672Z,3.70
2023-04-08T00:09:10.654Z,4.10
2023-04-08T00:10:10.681Z,3.90
2023-04-08T00:11:10.640Z,4.20
2023-04-08T00:12:10.645Z,3.80
2023-04-08T00:13:10.625Z,4.10
2023-04-08T00:14:10.595Z,4.20
2023-04-08T00:15:10.581Z,3.90
2023-04-08T00:16:10.571Z,4.40
2023-04-08T00:17:10.625Z,4.10
2023-04-08T00:18:10.605Z,4.00
2023-04-08T00:19:10.539Z,4.30
2023-04-08T00:20:10.558Z,4.00
2023-04-08T00:21:10.533Z,4.40
2023-04-08T00:22:10.543Z,4.10
2023-04-08T00:23:10.493Z,4.50
2023-04-08T00:24:10.500Z,4.40
2023-04-08T00:25:10.472Z,4.10
2023-04-08T00:26:10.479Z,4.60
2023-04-08T00:27:10.467Z,4.60
2023-04-08T00:28:10.447Z,4.30
2023-04-08T00:29:10.421Z,4.00
2023-04-08T00:30:10.417Z,4.50
2023-04-08T00:31:10.470Z,4.10
2023-04-08T00:32:10.412Z,4.70
2023-04-08T00:33:10.417Z,4.30
2023-04-08T00:34:10.381Z,4.00
2023-04-08T00:35:10.360Z,4.30
2023-04-08T00:36:10.354Z,4.70
2023-04-08T00:37:10.374Z,4.00
2023-04-08T00:38:10.340Z,4.00
2023-04-08T00:39:10.343Z,4.20
2023-04-08T00:40:10.332Z,4.30
2023-04-08T00:41:10.309Z,4.30
2023-04-08T00:42:10.311Z,4.20
2023-04-08T00:43:10.329Z,3.80
2023-04-08T00:44:10.323Z,3.70
2023-04-08T00:45:10.277Z,3.90
2023-04-08T00:46:10.280Z,3.90
2023-04-08T00:47:10.260Z,3.90
2023-04-08T00:48:10.225Z,3.80
2023-04-08T00:49:10.226Z,4.00
2023-04-08T00:50:10.206Z,3.60
2023-04-08T00:51:10.191Z,3.70
2023-04-08T00:52:10.219Z,3.90
2023-04-08T00:53:10.171Z,3.90
2023-04-08T00:54:10.160Z,3.30
2023-04-08T00:55:10.153Z,3.40
2023-04-08T00:56:10.144Z,3.50
2023-04-08T00:57:10.162Z,3.40
2023-04-08T00:58:10.130Z,3.60
2023-04-08T00:59:10.126Z,3.70
2023-04-08T01:00:10.154Z,3.00
2023-04-08T01:01:10.168Z,3.30
2023-04-08T01:02:10.181Z,3.20
2023-04-08T01:03:10.191Z,3.60
2023-04-08T01:04:10.201Z,3.60
2023-04-08T01:05:10.051Z,3.60
2023-04-08T01:06:10.134Z,3.70
2023-04-08T01:07:10.043Z,3.30
2023-04-08T01:08:10.008Z,3.20
2023-04-08T01:09:10.048Z,3.60
2023-04-08T01:10:10.018Z,3.20
2023-04-08T01:11:10.008Z,3.60
2023-04-08T01:12:10.017Z,3.30
2023-04-08T01:13:09.975Z,3.00
2023-04-08T01:14:09.961Z,3.50
2023-04-08T01:15:09.938Z,3.20
2023-04-08T01:16:09.975Z,3.60
2023-04-08T01:17:09.933Z,3.10
2023-04-08T01:18:09.913Z,3.50
2023-04-08T01:19:09.910Z,3.80
2023-04-08T01:20:09.905Z,3.70
2023-04-08T01:21:09.883Z,3.20
2023-04-08T01:22:09.875Z,3.70
2023-04-08T01:23:09.866Z,3.80
2023-04-08T01:24:09.865Z,3.40
2023-04-08T01:25:09.849Z,2.90
2023-04-08T01:26:09.831Z,3.30
2023-04-08T01:27:09.862Z,3.00
2023-04-08T01:28:09.794Z,3.30
2023-04-08T01:29:09.834Z,3.30
2023-04-08T01:30:09.783Z,3.90
2023-04-08T01:31:09.854Z,3.30
2023-04-08T01:32:09.794Z,3.70
2023-04-08T01:33:09.764Z,3.40
2023-04-08T01:34:09.733Z,3.30
2023-04-08T01:35:09.734Z,3.20
2023-04-08T01:36:09.734Z,2.90
2023-04-08T01:37:09.727Z,3.10
2023-04-08T01:38:09.700Z,3.10
2023-04-08T01:39:09.694Z,3.10
2023-04-08T01:40:09.691Z,2.90
2023-04-08T01:41:09.680Z,3.10
2023-04-08T01:42:09.727Z,3.20
2023-04-08T01:43:09.651Z,2.90
2023-04-08T01:44:09.645Z,3.10
2023-04-08T01:45:09.632Z,3.30
2023-04-08T01:46:09.646Z,2.90
2023-04-08T01:47:09.621Z,3.10
2023-04-08T01:48:09.630Z,2.70
2023-04-08T01:49:09.574Z,3.10
2023-04-08T01:50:09.560Z,3.00
2023-04-08T01:51:09.583Z,3.00
2023-04-08T01:52:09.554Z,3.00
2023-04-08T01:53:09.550Z,3.30
2023-04-08T01:54:09.537Z,3.40
2023-04-08T01:55:09.514Z,3.50
2023-04-08T01:56:09.503Z,2.90
2023-04-08T01:57:09.549Z,3.50
2023-04-08T01:58:09.482Z,3.00
2023-04-08T01:59:09.487Z,3.50
2023-04-08T02:00:09.473Z,3.30
2023-04-08T02:01:09.517Z,3.00
2023-04-08T02:02:09.582Z,3.10
2023-04-08T02:03:09.710Z,3.20
2023-04-08T02:04:09.487Z,3.10
2023-04-08T02:05:09.417Z,3.40
2023-04-08T02:06:09.417Z,3.70
2023-04-08T02:07:09.414Z,3.10
2023-04-08T02:08:09.392Z,4.00
2023-04-08T02:09:09.383Z,3.50
2023-04-08T02:10:09.346Z,3.70
2023-04-08T02:11:09.355Z,3.90
2023-04-08T02:12:09.369Z,3.70
2023-04-08T02:13:09.338Z,3.70
2023-04-08T02:14:09.310Z,3.50
2023-04-08T02:15:09.325Z,4.30
2023-04-08T02:16:09.373Z,3.90
2023-04-08T02:17:09.303Z,3.60
2023-04-08T02:18:09.346Z,4.20
2023-04-08T02:19:09.268Z,4.10
2023-04-08T02:20:09.247Z,4.20
2023-04-08T02:21:09.245Z,4.20
2023-04-08T02:22:09.256Z,4.00
2023-04-08T02:23:09.228Z,4.30
2023-04-08T02:24:09.200Z,4.50
2023-04-08T02:25:09.193Z,4.50
2023-04-08T02:26:09.181Z,4.20
2023-04-08T02:27:09.195Z,4.30
2023-04-08T02:28:09.150Z,4.60
2023-04-08T02:29:09.145Z,4.60
2023-04-08T02:30:09.136Z,4.40
2023-04-08T02:31:09.145Z,4.90
2023-04-08T02:32:09.139Z,4.60
2023-04-08T02:33:09.111Z,4.30
2023-04-08T02:34:09.088Z,4.50
2023-04-08T02:35:09.085Z,4.80
2023-04-08T02:36:09.063Z,4.50
2023-04-08T02:37:09.094Z,4.40
2023-04-08T02:38:09.057Z,4.10
2023-04-08T02:39:09.057Z,4.70
2023-04-08T02:40:09.020Z,4.00
2023-04-08T02:41:09.025Z,4.50
2023-04-08T02:42:11.370Z,4.90
2023-04-08T02:43:09.060Z,4.70
2023-04-08T02:44:09.001Z,4.20
2023-04-08T02:45:08.990Z,4.40
2023-04-08T02:46:09.024Z,4.40
2023-04-08T02:47:08.961Z,4.60
2023-04-08T02:48:08.952Z,4.30
2023-04-08T02:49:08.973Z,4.80
2023-04-08T02:50:08.888Z,4.30
2023-04-08T02:51:08.863Z,4.20
2023-04-08T02:52:08.977Z,4.10
2023-04-08T02:53:08.910Z,4.90
2023-04-08T02:54:08.889Z,4.00
2023-04-08T02:55:08.951Z,4.10
2023-04-08T02:56:08.856Z,4.20
2023-04-08T02:57:08.887Z,4.30
2023-04-08T02:58:08.850Z,4.20
2023-04-08T02:59:08.840Z,3.90
2023-04-08T03:00:08.819Z,4.70
2023-04-08T03:01:08.876Z,4.30
2023-04-08T03:02:08.858Z,4.90
2023-04-08T03:03:08.866Z,4.20
2023-04-08T03:04:08.776Z,4.30
2023-04-08T03:05:08.760Z,4.30
2023-04-08T03:06:08.735Z,4.80
2023-04-08T03:07:08.950Z,4.80
2023-04-08T03:08:08.721Z,4.10
2023-04-08T03:09:08.708Z,4.70
2023-04-08T03:10:08.711Z,3.70
2023-04-08T03:11:08.712Z,4.10
2023-04-08T03:12:08.707Z,4.60
2023-04-08T03:13:08.682Z,4.30
2023-04-08T03:14:08.686Z,4.50
2023-04-08T03:15:08.650Z,4.30
2023-04-08T03:16:08.673Z,4.50
2023-04-08T03:17:08.644Z,4.40
2023-04-08T03:18:08.621Z,4.30
2023-04-08T03:19:08.613Z,4.00
2023-04-08T03:20:08.588Z,4.40
2023-04-08T03:21:08.597Z,4.50
2023-04-08T03:22:08.590Z,4.60
2023-04-08T03:23:08.584Z,4.30
2023-04-08T03:24:08.570Z,4.80
2023-04-08T03:25:08.554Z,4.50
2023-04-08T03:26:08.533Z,4.20
2023-04-08T03:27:08.557Z,4.70
2023-04-08T03:28:08.499Z,4.20
2023-04-08T03:29:08.502Z,4.90
2023-04-08T03:30:08.486Z,4.50
2023-04-08T03:31:08.477Z,4.50
2023-04-08T03:32:08.631Z,4.40
2023-04-08T03:33:08.492Z,4.30
2023-04-08T03:34:08.430Z,4.70
2023-04-08T03:35:08.440Z,4.20
2023-04-08T03:36:08.437Z,4.40
2023-04-08T03:37:08.438Z,4.30
2023-04-08T03:38:08.411Z,3.90
2023-04-08T03:39:08.388Z,4.40
2023-04-08T03:40:08.423Z,4.50
2023-04-08T03:41:08.385Z,4.20
2023-04-08T03:42:08.383Z,4.00
2023-04-08T03:43:08.377Z,4.20
2023-04-08T03:44:08.343Z,4.40
2023-04-08T03:45:08.348Z,4.20
2023-04-08T03:46:08.324Z,4.40
2023-04-08T03:47:08.328Z,3.70
2023-04-08T03:48:08.342Z,4.10
2023-04-08T03:49:08.277Z,4.50
2023-04-08T03:50:08.293Z,4.00
2023-04-08T03:51:08.257Z,4.40
2023-04-08T03:52:08.306Z,4.20
2023-04-08T03:53:08.300Z,3.80
2023-04-08T03:54:08.213Z,3.80
2023-04-08T03:55:08.225Z,4.30
2023-04-08T03:56:08.215Z,4.10
2023-04-08T03:57:08.244Z,4.70
2023-04-08T03:58:08.174Z,3.80
2023-04-08T03:59:08.197Z,3.60
2023-04-08T04:00:08.174Z,3.90
2023-04-08T04:01:08.173Z,4.10
2023-04-08T04:02:08.240Z,3.90
2023-04-08T04:03:08.152Z,3.60
2023-04-08T04:04:08.281Z,4.00
2023-04-08T04:05:08.128Z,3.70
2023-04-08T04:06:08.215Z,3.80
2023-04-08T04:07:08.131Z,3.70
2023-04-08T04:08:08.074Z,4.20
2023-04-08T04:09:08.070Z,4.20
2023-04-08T04:10:08.071Z,4.00
2023-04-08T04:11:08.037Z,3.60
2023-04-08T04:12:08.065Z,4.10
2023-04-08T04:13:08.028Z,4.20
2023-04-08T04:14:08.008Z,4.00
2023-04-08T04:15:08.007Z,3.60
2023-04-08T04:16:08.042Z,4.20
2023-04-08T04:17:08.008Z,4.00
2023-04-08T04:18:08.091Z,3.70
2023-04-08T04:19:07.961Z,4.00
2023-04-08T04:20:07.958Z,3.80
2023-04-08T04:21:07.938Z,3.80
2023-04-08T04:22:07.919Z,4.70
2023-04-08T04:23:07.918Z,3.70
2023-04-08T04:24:07.832Z,4.30
2023-04-08T04:25:07.858Z,4.10
2023-04-08T04:26:07.827Z,3.70
2023-04-08T04:27:07.832Z,4.20
2023-04-08T04:28:07.807Z,4.10
2023-04-08T04:29:07.820Z,3.80
2023-04-08T04:30:14.290Z,3.90
2023-04-08T04:31:07.848Z,3.50
2023-04-08T04:32:07.770Z,3.50
2023-04-08T04:33:07.760Z,4.30
2023-04-08T04:34:07.779Z,3.70
2023-04-08T04:35:07.754Z,3.80
2023-04-08T04:36:07.732Z,4.20
2023-04-08T04:37:07.756Z,3.40
2023-04-08T04:38:07.709Z,4.10
2023-04-08T04:39:07.702Z,4.10
2023-04-08T04:40:07.696Z,4.00
2023-04-08T04:41:07.683Z,4.10
2023-04-08T04:42:07.671Z,4.10
2023-04-08T04:43:07.652Z,4.30
2023-04-08T04:44:07.642Z,4.30
2023-04-08T04:45:07.645Z,4.20
2023-04-08T04:46:07.619Z,3.80
2023-04-08T04:47:07.611Z,4.10
2023-04-08T04:48:07.615Z,4.40
2023-04-08T04:49:07.615Z,4.20
2023-04-08T04:50:07.582Z,4.10
2023-04-08T04:51:07.650Z,4.50
2023-04-08T04:52:07.545Z,3.90
2023-04-08T04:53:07.546Z,4.10
2023-04-08T04:54:07.521Z,3.80
2023-04-08T04:55:07.547Z,4.00
2023-04-08T04:56:07.526Z,4.20
2023-04-08T04:57:07.500Z,4.00
2023-04-08T04:58:07.491Z,3.90
2023-04-08T04:59:07.483Z,4.10
2023-04-08T05:00:07.476Z,4.60
2023-04-08T05:01:07.453Z,4.00
2023-04-08T05:02:07.583Z,4.00
2023-04-08T05:03:07.603Z,4.60
2023-04-08T05:04:07.418Z,4.40
2023-04-08T05:05:07.477Z,4.20
2023-04-08T05:06:07.412Z,4.90
2023-04-08T05:07:07.419Z,4.20
2023-04-08T05:08:07.367Z,4.60
2023-04-08T05:09:07.417Z,4.80
2023-04-08T05:10:07.373Z,4.40
2023-04-08T05:11:07.365Z,4.30
2023-04-08T05:12:07.342Z,4.10
2023-04-08T05:13:07.339Z,4.30
2023-04-08T05:14:07.333Z,4.30
2023-04-08T05:15:07.359Z,4.30
2023-04-08T05:16:07.367Z,4.60
2023-04-08T05:17:07.305Z,4.10
2023-04-08T05:18:07.323Z,4.10
2023-04-08T05:19:07.352Z,4.20
2023-04-08T05:20:07.259Z,4.60
2023-04-08T05:21:07.261Z,4.60
2023-04-08T05:22:07.222Z,4.40
2023-04-08T05:23:07.232Z,4.00
2023-04-08T05:24:07.221Z,4.20
2023-04-08T05:25:07.209Z,4.10
2023-04-08T05:26:07.225Z,4.70
2023-04-08T05:27:07.181Z,4.40
2023-04-08T05:28:07.214Z,4.70
2023-04-08T05:29:07.173Z,4.60
2023-04-08T05:30:07.158Z,4.20
2023-04-08T05:31:07.230Z,4.60
2023-04-08T05:32:07.118Z,4.40
2023-04-08T05:33:07.243Z,4.40
2023-04-08T05:34:07.111Z,4.70
2023-04-08T05:35:07.122Z,4.20
2023-04-08T05:36:07.172Z,4.40
2023-04-08T05:37:07.084Z,4.50
2023-04-08T05:38:07.060Z,4.50
2023-04-08T05:39:07.181Z,4.90
2023-04-08T05:40:07.050Z,4.30
2023-04-08T05:41:07.071Z,5.20
2023-04-08T05:42:07.015Z,4.90
2023-04-08T05:43:07.022Z,4.30
2023-04-08T05:44:07.045Z,4.60
2023-04-08T05:45:07.001Z,4.70
2023-04-08T05:46:06.984Z,4.60
2023-04-08T05:47:07.008Z,4.60
2023-04-08T05:48:07.022Z,4.40
2023-04-08T05:49:06.950Z,4.90
2023-04-08T05:50:06.965Z,4.40
2023-04-08T05:51:06.956Z,4.40
2023-04-08T05:52:06.927Z,4.80
2023-04-08T05:53:06.953Z,4.70
2023-04-08T05:54:06.909Z,4.70
2023-04-08T05:55:06.873Z,4.40
2023-04-08T05:56:06.887Z,4.90
2023-04-08T05:57:08.637Z,4.50
2023-04-08T05:58:06.854Z,4.80
2023-04-08T05:59:06.849Z,4.30
2023-04-08T06:00:06.837Z,4.60
2023-04-08T06:01:06.835Z,4.50
2023-04-08T06:02:06.849Z,5.30
2023-04-08T06:03:07.024Z,4.80
2023-04-08T06:04:07.228Z,4.50
2023-04-08T06:05:06.906Z,4.70
2023-04-08T06:06:06.798Z,4.60
2023-04-08T06:07:06.744Z,4.70
2023-04-08T06:08:06.726Z,4.50
2023-04-08T06:09:06.728Z,4.90
2023-04-08T06:10:06.719Z,4.40
2023-04-08T06:11:06.707Z,4.80
2023-04-08T06:12:06.725Z,4.60
2023-04-08T06:13:06.705Z,4.20
2023-04-08T06:14:06.694Z,4.60
2023-04-08T06:15:06.646Z,4.10
2023-04-08T06:16:07.032Z,3.70
2023-04-08T06:17:07.069Z,4.00
2023-04-08T06:18:06.665Z,4.00
2023-04-08T06:19:06.695Z,3.80
2023-04-08T06:20:06.610Z,3.90
2023-04-08T06:21:06.601Z,4.20
2023-04-08T06:22:06.612Z,3.80
2023-04-08T06:23:06.644Z,4.10
2023-04-08T06:24:06.578Z,5.10
2023-04-08T06:25:06.555Z,4.10
2023-04-08T06:26:06.570Z,4.10
2023-04-08T06:27:06.573Z,4.10
2023-04-08T06:28:06.578Z,4.00
2023-04-08T06:29:06.813Z,3.60
2023-04-08T06:30:06.515Z,3.50
2023-04-08T06:31:06.499Z,3.60
2023-04-08T06:32:06.573Z,3.90
2023-04-08T06:33:06.476Z,3.90
2023-04-08T06:34:06.500Z,3.90
2023-04-08T06:35:06.443Z,3.60
2023-04-08T06:36:06.460Z,3.80
2023-04-08T06:37:06.589Z,3.60
2023-04-08T06:38:06.426Z,3.70
2023-04-08T06:39:06.433Z,3.10
2023-04-08T06:40:06.455Z,3.60
2023-04-08T06:41:06.397Z,3.50
2023-04-08T06:42:06.608Z,3.50
2023-04-08T06:43:06.380Z,3.60
2023-04-08T06:44:06.398Z,3.40
2023-04-08T06:45:06.350Z,3.10
2023-04-08T06:46:06.459Z,3.60
2023-04-08T06:47:06.346Z,3.30
2023-04-08T06:48:06.405Z,3.30
2023-04-08T06:49:06.300Z,3.70
2023-04-08T06:50:06.300Z,3.40
2023-04-08T06:51:06.274Z,3.10
2023-04-08T06:52:06.279Z,3.50
2023-04-08T06:53:06.256Z,3.50
2023-04-08T06:54:06.243Z,3.60
2023-04-08T06:55:06.234Z,3.60
2023-04-08T06:56:06.238Z,3.10
2023-04-08T06:57:06.240Z,3.50
2023-04-08T06:58:06.200Z,3.40
2023-04-08T06:59:06.228Z,3.50
2023-04-08T07:00:06.186Z,3.00
2023-04-08T07:01:06.217Z,3.50
2023-04-08T07:02:06.198Z,3.30
2023-04-08T07:03:06.244Z,3.30
2023-04-08T07:04:06.175Z,3.60
2023-04-08T07:05:06.122Z,3.00
2023-04-08T07:06:06.134Z,3.20
2023-04-08T07:07:06.132Z,3.10
2023-04-08T07:08:06.113Z,2.60
2023-04-08T07:09:06.299Z,2.90
2023-04-08T07:10:07.274Z,2.90
2023-04-08T07:11:06.126Z,2.80
2023-04-08T07:12:06.085Z,3.00
2023-04-08T07:13:06.043Z,3.00
2023-04-08T07:14:06.040Z,2.80
2023-04-08T07:15:06.087Z,2.90
2023-04-08T07:16:06.020Z,2.90
2023-04-08T07:17:06.081Z,3.30
2023-04-08T07:18:06.134Z,2.50
2023-04-08T07:19:06.175Z,2.60
2023-04-08T07:20:06.027Z,3.20
2023-04-08T07:21:06.987Z,2.70
2023-04-08T07:22:06.570Z,3.00
2023-04-08T07:23:05.938Z,2.30
2023-04-08T07:24:05.960Z,2.40
2023-04-08T07:25:05.935Z,2.80
2023-04-08T07:26:05.938Z,2.80
2023-04-08T07:27:05.925Z,2.40
2023-04-08T07:28:05.963Z,2.40
2023-04-08T07:29:05.868Z,2.30
2023-04-08T07:30:05.884Z,2.80
2023-04-08T07:31:05.981Z,2.30
2023-04-08T07:32:05.862Z,2.60
2023-04-08T07:33:05.920Z,2.70
2023-04-08T07:34:05.906Z,2.60
2023-04-08T07:35:05.872Z,2.40
2023-04-08T07:36:05.858Z,2.20
2023-04-08T07:37:05.825Z,2.40
2023-04-08T07:38:05.780Z,2.80
2023-04-08T07:39:05.798Z,2.50
2023-04-08T07:40:05.796Z,2.60
2023-04-08T07:41:05.794Z,3.00
2023-04-08T07:42:05.770Z,2.30
2023-04-08T07:43:05.753Z,2.70
2023-04-08T07:44:05.771Z,2.40
2023-04-08T07:45:05.783Z,2.60
2023-04-08T07:46:05.764Z,2.60
2023-04-08T07:47:05.786Z,2.80
2023-04-08T07:48:05.719Z,2.80
2023-04-08T07:49:05.708Z,2.60
2023-04-08T07:50:05.667Z,2.40
2023-04-08T07:51:09.746Z,2.60
2023-04-08T07:52:05.686Z,2.70
2023-04-08T07:53:06.962Z,2.80
2023-04-08T07:54:05.633Z,2.60
2023-04-08T07:55:05.621Z,2.20
2023-04-08T07:56:05.606Z,2.20
2023-04-08T07:57:05.609Z,2.60
2023-04-08T07:58:05.886Z,2.80
2023-04-08T07:59:05.630Z,2.60
2023-04-08T08:00:05.592Z,2.70
2023-04-08T08:01:05.559Z,2.70
2023-04-08T08:02:05.582Z,2.80
2023-04-08T08:03:05.587Z,3.00
2023-04-08T08:04:05.683Z,2.90
2023-04-08T08:05:05.541Z,2.80
2023-04-08T08:06:05.490Z,2.90
2023-04-08T08:07:05.541Z,2.60
2023-04-08T08:08:05.488Z,2.80
2023-04-08T08:09:05.459Z,3.30
2023-04-08T08:10:05.450Z,3.00
2023-04-08T08:11:05.465Z,3.30
2023-04-08T08:12:05.530Z,3.20
2023-04-08T08:13:05.418Z,3.40
2023-04-08T08:14:05.438Z,3.00
2023-04-08T08:15:05.413Z,2.80
2023-04-08T08:16:05.521Z,2.70
2023-04-08T08:17:05.415Z,3.00
2023-04-08T08:18:05.443Z,2.90
2023-04-08T08:19:05.351Z,3.20
2023-04-08T08:20:05.367Z,3.10
2023-04-08T08:21:05.353Z,3.30
2023-04-08T08:22:05.333Z,3.20
2023-04-08T08:23:05.326Z,3.10
2023-04-08T08:24:05.331Z,3.50
2023-04-08T08:25:05.302Z,3.60
2023-04-08T08:26:05.314Z,3.50
2023-04-08T08:27:05.280Z,3.50
2023-04-08T08:28:05.273Z,3.50
2023-04-08T08:29:05.267Z,3.20
2023-04-08T08:30:05.257Z,3.30
2023-04-08T08:31:05.239Z,3.20
2023-04-08T08:32:05.230Z,3.00
2023-04-08T08:33:05.265Z,3.80
2023-04-08T08:34:05.200Z,3.20
2023-04-08T08:35:05.234Z,3.60
2023-04-08T08:36:05.251Z,3.40
2023-04-08T08:37:05.166Z,3.20
2023-04-08T08:38:05.170Z,3.10
2023-04-08T08:39:05.162Z,3.90
2023-04-08T08:40:05.174Z,3.70
2023-04-08T08:41:05.138Z,3.60
2023-04-08T08:42:05.185Z,3.40
2023-04-08T08:43:05.129Z,3.20
2023-04-08T08:44:05.104Z,3.30
2023-04-08T08:45:05.112Z,4.20
2023-04-08T08:46:05.168Z,3.60
2023-04-08T08:47:05.217Z,3.70
2023-04-08T08:48:05.118Z,3.90
2023-04-08T08:49:05.090Z,3.90
2023-04-08T08:50:05.138Z,3.90
2023-04-08T08:51:05.050Z,3.50
2023-04-08T08:52:05.063Z,4.10
2023-04-08T08:53:04.994Z,3.30
2023-04-08T08:54:05.000Z,4.10
2023-04-08T08:55:21.808Z,4.00
2023-04-08T08:56:17.883Z,3.30
2023-04-08T08:57:04.977Z,4.10
2023-04-08T08:58:04.992Z,3.80
2023-04-08T08:59:04.939Z,3.70
2023-04-08T09:00:04.942Z,4.00
2023-04-08T09:01:04.933Z,4.10
2023-04-08T09:02:04.985Z,4.30
2023-04-08T09:03:05.130Z,4.20
2023-04-08T09:04:05.009Z,4.10
2023-04-08T09:05:05.031Z,4.60
2023-04-08T09:06:04.870Z,4.10
2023-04-08T09:07:04.929Z,4.00
2023-04-08T09:08:04.853Z,4.40
2023-04-08T09:09:04.843Z,3.90
2023-04-08T09:10:05.468Z,4.30
2023-04-08T09:11:04.809Z,4.60
2023-04-08T09:12:04.885Z,4.50
2023-04-08T09:13:04.838Z,4.60
2023-04-08T09:14:04.782Z,3.90
2023-04-08T09:15:04.798Z,4.00
2023-04-08T09:16:04.791Z,4.10
2023-04-08T09:17:04.749Z,4.10
2023-04-08T09:18:04.794Z,4.20
2023-04-08T09:19:04.744Z,4.50
2023-04-08T09:20:04.831Z,4.60
2023-04-08T09:21:04.703Z,4.50
2023-04-08T09:22:04.720Z,4.60
2023-04-08T09:23:04.767Z,4.50
2023-04-08T09:24:04.684Z,4.40
2023-04-08T09:25:04.668Z,4.50
2023-04-08T09:26:04.721Z,4.20
2023-04-08T09:27:04.674Z,3.90
2023-04-08T09:28:04.662Z,4.00
2023-04-08T09:29:18.184Z,4.80
2023-04-08T09:30:04.619Z,4.80
2023-04-08T09:31:04.619Z,4.50
2023-04-08T09:32:04.708Z,4.80
2023-04-08T09:33:04.623Z,4.50
2023-04-08T09:34:04.561Z,5.00
2023-04-08T09:35:06.859Z,4.40
2023-04-08T09:36:04.562Z,4.20
2023-04-08T09:37:04.540Z,4.40
2023-04-08T09:38:04.602Z,4.30
2023-04-08T09:39:04.511Z,4.90
2023-04-08T09:40:04.508Z,4.80
2023-04-08T09:41:04.538Z,4.60
2023-04-08T09:42:04.565Z,5.00
2023-04-08T09:43:04.478Z,4.80
2023-04-08T09:44:04.479Z,4.60
2023-04-08T09:45:04.440Z,4.40
2023-04-08T09:46:04.495Z,4.60
2023-04-08T09:47:04.457Z,4.30
2023-04-08T09:48:04.448Z,4.30
2023-04-08T09:49:04.424Z,4.20
2023-04-08T09:50:04.421Z,4.10
2023-04-08T09:51:04.405Z,4.60
2023-04-08T09:52:04.403Z,4.60
2023-04-08T09:53:04.372Z,4.20
2023-04-08T09:54:04.360Z,4.50
2023-04-08T09:55:04.346Z,4.40
2023-04-08T09:56:04.360Z,4.50
2023-04-08T09:57:04.358Z,4.60
2023-04-08T09:58:04.360Z,5.10
2023-04-08T09:59:06.395Z,4.70
2023-04-08T10:00:04.292Z,4.40
2023-04-08T10:01:04.398Z,4.60
2023-04-08T10:02:04.360Z,5.00
2023-04-08T10:03:04.340Z,4.60
2023-04-08T10:04:04.314Z,4.60
2023-04-08T10:05:06.891Z,4.70
2023-04-08T10:06:04.237Z,4.80
2023-04-08T10:07:04.269Z,4.60
2023-04-08T10:08:04.223Z,4.40
2023-04-08T10:09:04.232Z,4.90
2023-04-08T10:10:04.201Z,4.60
2023-04-08T10:11:04.209Z,4.80
2023-04-08T10:12:04.185Z,4.80
2023-04-08T10:13:04.196Z,4.40
2023-04-08T10:14:04.175Z,4.80
2023-04-08T10:15:04.162Z,4.80
2023-04-08T10:16:05.495Z,4.90
2023-04-08T10:17:04.266Z,4.50
2023-04-08T10:18:04.130Z,4.30
2023-04-08T10:19:04.125Z,4.30
2023-04-08T10:20:04.277Z,4.90
2023-04-08T10:21:04.081Z,4.70
2023-04-08T10:22:05.051Z,4.60
2023-04-08T10:23:04.172Z,4.80
2023-04-08T10:24:04.059Z,4.70
2023-04-08T10:25:04.025Z,5.20
2023-04-08T10:26:04.066Z,4.90
2023-04-08T10:27:04.022Z,5.00
2023-04-08T10:28:04.776Z,5.10
2023-04-08T10:29:04.013Z,5.10
2023-04-08T10:30:04.006Z,4.60
2023-04-08T10:31:04.005Z,4.40
2023-04-08T10:32:04.014Z,4.70
2023-04-08T10:33:03.953Z,5.50
2023-04-08T10:34:03.950Z,4.50
2023-04-08T10:35:03.997Z,4.50
2023-04-08T10:36:03.977Z,4.80
2023-04-08T10:37:04.497Z,4.50
2023-04-08T10:38:03.925Z,4.60
2023-04-08T10:39:03.899Z,4.80
2023-04-08T10:40:03.904Z,4.70
2023-04-08T10:41:03.993Z,4.80
2023-04-08T10:42:03.884Z,4.60
2023-04-08T10:43:03.833Z,4.80
2023-04-08T10:44:03.870Z,4.30
2023-04-08T10:45:03.842Z,4.70
2023-04-08T10:46:03.858Z,4.90
2023-04-08T10:47:03.815Z,4.60
2023-04-08T10:48:03.846Z,5.40
2023-04-08T10:49:03.789Z,5.20
2023-04-08T10:50:03.769Z,5.10
2023-04-08T10:51:03.854Z,5.70
2023-04-08T10:52:03.749Z,5.20
2023-04-08T10:53:03.738Z,5.10
2023-04-08T10:54:03.727Z,5.40
2023-04-08T10:55:03.733Z,4.90
2023-04-08T10:56:03.713Z,5.10
2023-04-08T10:57:03.691Z,5.30
2023-04-08T10:58:03.689Z,5.40
2023-04-08T10:59:03.665Z,5.20
2023-04-08T11:00:03.660Z,5.40
2023-04-08T11:01:03.766Z,5.00
2023-04-08T11:02:03.754Z,5.00
2023-04-08T11:03:03.822Z,5.20
2023-04-08T11:04:03.733Z,5.10
2023-04-08T11:05:03.623Z,5.10
2023-04-08T11:06:03.657Z,5.10
2023-04-08T11:07:03.598Z,5.10
2023-04-08T11:08:03.588Z,5.40
2023-04-08T11:09:03.566Z,4.90
2023-04-08T11:10:03.550Z,5.10
2023-04-08T11:11:03.579Z,5.00
2023-04-08T11:12:03.558Z,5.10
2023-04-08T11:13:03.547Z,5.40
2023-04-08T11:14:03.517Z,4.60
2023-04-08T11:15:03.510Z,5.40
2023-04-08T11:16:03.564Z,5.50
2023-04-08T11:17:03.477Z,5.30
2023-04-08T11:18:03.528Z,4.60
2023-04-08T11:19:03.467Z,5.00
2023-04-08T11:20:03.451Z,5.00
2023-04-08T11:21:03.450Z,5.30
2023-04-08T11:22:03.428Z,5.40
2023-04-08T11:23:03.483Z,5.00
2023-04-08T11:24:03.412Z,4.80
2023-04-08T11:25:03.420Z,4.90
2023-04-08T11:26:05.161Z,4.90
2023-04-08T11:27:03.468Z,5.40
2023-04-08T11:28:03.451Z,5.10
2023-04-08T11:29:03.372Z,5.20
2023-04-08T11:30:03.360Z,5.10
2023-04-08T11:31:03.485Z,5.50
2023-04-08T11:32:03.343Z,5.00
2023-04-08T11:33:03.351Z,5.20
2023-04-08T11:34:03.330Z,5.90
2023-04-08T11:35:03.286Z,4.90
2023-04-08T11:36:03.369Z,5.40
2023-04-08T11:37:03.288Z,5.60
2023-04-08T11:38:03.268Z,5.70
2023-04-08T11:39:03.275Z,4.80
2023-04-08T11:40:03.241Z,5.20
2023-04-08T11:41:03.256Z,5.40
2023-04-08T11:42:03.277Z,5.60
2023-04-08T11:43:03.214Z,5.30
2023-04-08T11:44:03.232Z,5.40
2023-04-08T11:45:03.299Z,5.00
2023-04-08T11:46:03.262Z,5.20
2023-04-08T11:47:03.187Z,5.10
2023-04-08T11:48:04.795Z,5.30
2023-04-08T11:49:03.137Z,5.30
2023-04-08T11:50:03.151Z,5.30
2023-04-08T11:51:03.169Z,5.10
2023-04-08T11:52:03.189Z,5.30
2023-04-08T11:53:03.155Z,5.70
2023-04-08T11:54:03.119Z,5.10
2023-04-08T11:55:03.082Z,5.40
2023-04-08T11:56:03.086Z,5.40
2023-04-08T11:57:03.074Z,4.80
2023-04-08T11:58:03.046Z,5.30
2023-04-08T11:59:03.028Z,5.20
2023-04-08T12:00:03.060Z,5.70
2023-04-08T12:01:03.026Z,5.10
2023-04-08T12:02:03.063Z,5.60
2023-04-08T12:03:03.073Z,5.20
2023-04-08T12:04:03.153Z,5.60
2023-04-08T12:05:03.075Z,5.50
2023-04-08T12:06:02.995Z,5.30
2023-04-08T12:07:02.980Z,5.50
2023-04-08T12:08:02.971Z,5.00
2023-04-08T12:09:02.999Z,5.60
2023-04-08T12:10:02.938Z,5.10
2023-04-08T12:11:16.671Z,5.30
2023-04-08T12:12:02.908Z,5.30
2023-04-08T12:13:02.900Z,5.10
2023-04-08T12:14:02.879Z,5.30
2023-04-08T12:15:02.872Z,5.00
2023-04-08T12:16:02.908Z,5.20
2023-04-08T12:17:02.855Z,5.10
2023-04-08T12:18:02.926Z,5.10
2023-04-08T12:19:02.897Z,5.00
2023-04-08T12:20:02.810Z,5.10
2023-04-08T12:21:02.808Z,5.40
2023-04-08T12:22:02.800Z,4.80
2023-04-08T12:23:02.849Z,5.00
2023-04-08T12:24:02.791Z,5.40
2023-04-08T12:25:02.801Z,5.10
2023-04-08T12:26:02.841Z,5.40
2023-04-08T12:27:02.736Z,5.50
2023-04-08T12:28:02.747Z,5.10
2023-04-08T12:29:02.733Z,5.20
2023-04-08T12:30:02.702Z,4.70
2023-04-08T12:31:02.789Z,5.10
2023-04-08T12:32:02.796Z,5.40
2023-04-08T12:33:02.711Z,5.30
2023-04-08T12:34:02.664Z,4.60
2023-04-08T12:35:02.678Z,4.90
2023-04-08T12:36:02.704Z,5.10
2023-04-08T12:37:02.669Z,5.30
2023-04-08T12:38:02.637Z,4.70
2023-04-08T12:39:02.650Z,4.80
2023-04-08T12:40:02.616Z,5.10
2023-04-08T12:41:02.656Z,5.20
2023-04-08T12:42:02.587Z,5.10
2023-04-08T12:43:02.600Z,5.20
2023-04-08T12:44:02.584Z,5.40
2023-04-08T12:45:02.555Z,5.30
2023-04-08T12:46:02.562Z,5.20
2023-04-08T12:47:02.637Z,5.50
2023-04-08T12:48:02.633Z,5.40
2023-04-08T12:49:04.686Z,5.30
2023-04-08T12:50:02.556Z,5.10
2023-04-08T12:51:02.530Z,4.70
2023-04-08T12:52:02.627Z,5.00
2023-04-08T12:53:02.570Z,4.70
2023-04-08T12:54:02.478Z,5.10
2023-04-08T12:55:02.444Z,5.00
2023-04-08T12:56:02.504Z,5.20
2023-04-08T12:57:02.440Z,5.40
2023-04-08T12:58:02.415Z,5.00
2023-04-08T12:59:02.446Z,4.80
2023-04-08T13:00:02.458Z,5.40
2023-04-08T13:01:02.457Z,4.90
2023-04-08T13:02:02.406Z,5.20
2023-04-08T13:03:02.477Z,4.90
2023-04-08T13:04:02.605Z,5.00
2023-04-08T13:05:02.358Z,5.80
2023-04-08T13:06:02.395Z,5.20
2023-04-08T13:07:02.416Z,5.20
2023-04-08T13:08:02.329Z,4.90
2023-04-08T13:09:02.321Z,4.80
2023-04-08T13:10:02.299Z,5.30
2023-04-08T13:11:02.318Z,5.30
2023-04-08T13:12:02.368Z,5.70
2023-04-08T13:13:02.279Z,4.80
2023-04-08T13:14:02.274Z,5.10
2023-04-08T13:15:02.270Z,5.30
2023-04-08T13:16:02.256Z,5.40
2023-04-08T13:17:02.312Z,5.70
2023-04-08T13:18:02.290Z,5.40